Terminal Aerodrome Forecast
Issued by NWS Sioux Falls, SD

Home | Current Version | Previous Version | Text Only | Print | Product List | Glossary Off
Versions: 1 2 3 4 5 6 7 8 9 10 11 12 13 14 15 16

976
FTUS43 KFSD 241105 AAA
TAFHON
TAF AMD
KHON 241105Z 2411/2506 VRB04KT P6SM SCT035
      TEMPO 2411/2413 2SM BR
     FM241800 15007KT P6SM FEW045=

USA.gov is the U.S. government's official web portal to all federal, state and local government web resources and services.